createdAt,value
2019-03-26T00:00:42.949Z,4.50
2019-03-26T00:03:11.387Z,4.50
2019-03-26T00:05:39.911Z,4.10
2019-03-26T00:08:08.363Z,3.90
2019-03-26T00:10:36.887Z,4.10
2019-03-26T00:13:05.337Z,4.30
2019-03-26T00:15:33.792Z,4.30
2019-03-26T00:18:02.245Z,4.20
2019-03-26T00:20:30.721Z,4.20
2019-03-26T00:22:59.181Z,4.40
2019-03-26T00:25:27.681Z,4.40
2019-03-26T00:27:56.139Z,4.40
2019-03-26T00:30:24.590Z,4.20
2019-03-26T00:32:53.057Z,4.40
2019-03-26T00:35:21.559Z,4.60
2019-03-26T00:37:50.012Z,4.60
2019-03-26T00:40:18.448Z,4.70
2019-03-26T00:42:46.889Z,4.70
2019-03-26T00:45:15.344Z,4.70
2019-03-26T00:47:43.791Z,4.70
2019-03-26T00:50:12.322Z,4.70
2019-03-26T00:52:40.769Z,4.70
2019-03-26T00:55:22.092Z,4.60
2019-03-26T00:57:39.997Z,4.40
2019-03-26T01:00:09.781Z,4.40
2019-03-26T01:02:38.316Z,4.30
2019-03-26T01:05:07.858Z,4.30
2019-03-26T01:07:36.313Z,4.10
2019-03-26T01:10:08.939Z,3.80
2019-03-26T01:12:37.430Z,3.70
2019-03-26T01:15:07.416Z,3.50
2019-03-26T01:17:35.905Z,3.30
2019-03-26T01:20:06.359Z,3.30
2019-03-26T01:22:35.091Z,3.50
2019-03-26T01:25:04.159Z,3.70
2019-03-26T01:27:32.697Z,3.80
2019-03-26T01:30:01.143Z,3.80
2019-03-26T01:32:29.593Z,4.10
2019-03-26T01:34:58.053Z,3.90
2019-03-26T01:37:26.500Z,3.90
2019-03-26T01:39:55.033Z,4.00
2019-03-26T01:42:23.481Z,4.00
2019-03-26T01:44:51.967Z,4.20
2019-03-26T01:47:20.506Z,4.20
2019-03-26T01:49:49.002Z,4.40
2019-03-26T01:52:17.541Z,4.10
2019-03-26T01:54:45.983Z,4.00
2019-03-26T01:57:14.465Z,4.30
2019-03-26T01:59:42.910Z,4.30
2019-03-26T02:02:11.352Z,4.40
2019-03-26T02:04:39.892Z,4.50
2019-03-26T02:07:08.336Z,4.30
2019-03-26T02:09:36.794Z,4.10
2019-03-26T02:12:05.301Z,4.20
2019-03-26T02:14:33.860Z,4.40
2019-03-26T02:17:02.300Z,4.50
2019-03-26T02:19:30.744Z,4.30
2019-03-26T02:21:59.200Z,4.50
2019-03-26T02:24:27.640Z,4.50
2019-03-26T02:26:56.100Z,4.50
2019-03-26T02:29:24.540Z,4.60
2019-03-26T02:31:53.005Z,4.60
2019-03-26T02:34:21.441Z,4.60
2019-03-26T02:36:50.023Z,4.60
2019-03-26T02:39:18.533Z,4.60
2019-03-26T02:41:46.980Z,4.60
2019-03-26T02:44:15.445Z,4.60
2019-03-26T02:46:43.964Z,4.50
2019-03-26T02:49:12.416Z,4.40
2019-03-26T02:51:40.869Z,4.60
2019-03-26T02:54:09.394Z,4.70
2019-03-26T02:56:37.845Z,4.60
2019-03-26T02:59:06.348Z,4.50
2019-03-26T03:01:34.848Z,4.60
2019-03-26T03:04:03.335Z,4.60
2019-03-26T03:06:31.869Z,4.70
2019-03-26T03:09:00.379Z,4.70
2019-03-26T03:11:28.912Z,4.70
2019-03-26T03:13:57.356Z,4.60
2019-03-26T03:16:25.857Z,4.40
2019-03-26T03:18:54.375Z,4.60
2019-03-26T03:21:22.811Z,4.60
2019-03-26T03:23:51.284Z,4.60
2019-03-26T03:26:19.802Z,4.60
2019-03-26T03:28:48.270Z,4.60
2019-03-26T03:31:16.798Z,4.70
2019-03-26T03:33:45.423Z,4.70
2019-03-26T03:36:13.873Z,4.70
2019-03-26T03:38:42.326Z,4.60
2019-03-26T03:41:10.808Z,4.60
2019-03-26T03:43:39.268Z,4.60
2019-03-26T03:46:07.849Z,4.60
2019-03-26T03:48:37.025Z,4.60
2019-03-26T03:51:07.242Z,4.60
2019-03-26T03:53:36.029Z,4.50
2019-03-26T03:56:05.377Z,4.40
2019-03-26T03:58:35.900Z,4.30
2019-03-26T04:01:04.362Z,4.20
2019-03-26T04:03:32.886Z,4.20
2019-03-26T04:06:08.697Z,4.10
2019-03-26T04:08:31.581Z,4.10
2019-03-26T04:11:00.028Z,4.10
2019-03-26T04:13:28.486Z,4.00
2019-03-26T04:15:56.945Z,4.00
2019-03-26T04:18:25.471Z,4.10
2019-03-26T04:20:53.936Z,4.20
2019-03-26T04:23:22.469Z,4.20
2019-03-26T04:25:50.924Z,4.20
2019-03-26T04:28:19.384Z,4.30
2019-03-26T04:30:47.926Z,4.30
2019-03-26T04:33:16.425Z,4.30
2019-03-26T04:35:44.897Z,4.10
2019-03-26T04:38:13.343Z,4.30
2019-03-26T04:40:41.800Z,4.20
2019-03-26T04:43:10.248Z,4.10
2019-03-26T04:45:38.698Z,4.20
2019-03-26T04:48:07.236Z,4.20
2019-03-26T04:50:35.672Z,4.30
2019-03-26T04:53:04.140Z,4.40
2019-03-26T04:55:32.590Z,4.30
2019-03-26T04:58:01.047Z,4.20
2019-03-26T05:00:29.581Z,4.00
2019-03-26T05:02:58.792Z,4.10
2019-03-26T05:05:27.247Z,3.70
2019-03-26T05:07:55.707Z,4.00
2019-03-26T05:10:25.735Z,4.10
2019-03-26T05:12:54.198Z,3.90
2019-03-26T05:15:22.653Z,3.60
2019-03-26T05:17:51.108Z,3.60
2019-03-26T05:20:19.560Z,3.40
2019-03-26T05:22:48.081Z,3.80
2019-03-26T05:25:16.562Z,3.90
2019-03-26T05:27:45.898Z,4.10
2019-03-26T05:30:14.708Z,4.20
2019-03-26T05:32:43.233Z,4.20
2019-03-26T05:35:12.746Z,4.10
2019-03-26T05:37:41.200Z,4.20
2019-03-26T05:40:11.527Z,4.30
2019-03-26T05:42:40.071Z,4.30
2019-03-26T05:45:09.993Z,4.40
2019-03-26T05:47:38.433Z,4.60
2019-03-26T05:50:08.922Z,4.60
2019-03-26T05:52:38.119Z,4.70
2019-03-26T05:55:07.603Z,4.70
2019-03-26T05:57:37.407Z,4.80
2019-03-26T06:00:13.252Z,4.70
2019-03-26T06:02:41.800Z,4.80
2019-03-26T06:05:10.247Z,4.80
2019-03-26T06:07:38.819Z,4.90
2019-03-26T06:10:09.398Z,4.90
2019-03-26T06:12:37.867Z,4.70
2019-03-26T06:15:10.211Z,4.60
2019-03-26T06:17:38.739Z,4.60
2019-03-26T06:20:08.061Z,4.60
2019-03-26T06:22:36.522Z,4.60
2019-03-26T06:25:08.333Z,4.70
2019-03-26T06:27:36.783Z,4.80
2019-03-26T06:30:08.002Z,4.80
2019-03-26T06:32:36.964Z,4.70
2019-03-26T06:35:08.754Z,4.90
2019-03-26T06:37:37.480Z,5.00
2019-03-26T06:40:09.365Z,5.10
2019-03-26T06:42:37.893Z,5.20
2019-03-26T06:45:08.261Z,4.80
2019-03-26T06:47:37.694Z,4.70
2019-03-26T06:50:11.282Z,4.80
2019-03-26T06:52:39.734Z,4.90
2019-03-26T06:55:08.928Z,5.10
2019-03-26T06:57:37.748Z,5.30
2019-03-26T07:00:11.363Z,5.60
2019-03-26T07:02:39.880Z,5.50
2019-03-26T07:05:08.872Z,5.00
2019-03-26T07:07:37.336Z,5.10
2019-03-26T07:10:08.619Z,5.50
2019-03-26T07:12:37.095Z,5.40
2019-03-26T07:15:09.385Z,5.30
2019-03-26T07:17:37.844Z,5.40
2019-03-26T07:20:08.411Z,5.50
2019-03-26T07:22:36.855Z,5.30
2019-03-26T07:25:08.444Z,5.20
2019-03-26T07:27:37.808Z,5.20
2019-03-26T07:30:08.316Z,5.30
2019-03-26T07:32:36.774Z,5.50
2019-03-26T07:35:07.131Z,5.70
2019-03-26T07:37:45.099Z,6.00
2019-03-26T07:40:06.696Z,5.80
2019-03-26T07:42:35.175Z,5.90
2019-03-26T07:45:05.593Z,6.00
2019-03-26T07:47:34.131Z,6.10
2019-03-26T07:50:02.655Z,6.00
2019-03-26T07:52:31.103Z,6.00
2019-03-26T07:54:59.553Z,6.30
2019-03-26T07:57:28.015Z,5.80
2019-03-26T07:59:56.496Z,5.50
2019-03-26T08:02:24.930Z,5.30
2019-03-26T08:04:53.399Z,5.80
2019-03-26T08:07:21.901Z,6.40
2019-03-26T08:09:50.365Z,6.60
2019-03-26T08:12:18.828Z,6.80
2019-03-26T08:14:47.351Z,6.60
2019-03-26T08:17:15.788Z,6.60
2019-03-26T08:19:44.236Z,7.10
2019-03-26T08:22:12.759Z,7.00
2019-03-26T08:24:41.238Z,6.70
2019-03-26T08:27:09.700Z,6.70
2019-03-26T08:29:38.148Z,7.20
2019-03-26T08:32:06.592Z,7.10
2019-03-26T08:34:35.040Z,6.70
2019-03-26T08:37:03.490Z,7.10
2019-03-26T08:39:31.940Z,6.80
2019-03-26T08:42:00.380Z,6.70
2019-03-26T08:44:28.832Z,7.10
2019-03-26T08:46:57.272Z,7.30
2019-03-26T08:49:30.637Z,7.90
2019-03-26T08:51:55.920Z,7.40
2019-03-26T08:54:24.369Z,7.50
2019-03-26T08:56:52.820Z,7.60
2019-03-26T08:59:21.265Z,7.70
2019-03-26T09:01:49.711Z,7.70
2019-03-26T09:04:18.147Z,7.90
2019-03-26T09:06:46.685Z,8.20
2019-03-26T09:09:15.123Z,7.90
2019-03-26T09:11:43.570Z,8.30
2019-03-26T09:14:12.106Z,8.80
2019-03-26T09:16:40.543Z,9.00
2019-03-26T09:19:08.992Z,9.10
2019-03-26T09:21:37.431Z,9.00
2019-03-26T09:24:05.882Z,8.80
2019-03-26T09:26:34.331Z,8.50
2019-03-26T09:29:02.780Z,8.90
2019-03-26T09:31:31.235Z,9.20
2019-03-26T09:33:59.732Z,8.90
2019-03-26T09:36:28.243Z,8.70
2019-03-26T09:38:56.689Z,9.10
2019-03-26T09:41:25.140Z,9.60
2019-03-26T09:43:53.623Z,9.10
2019-03-26T09:46:22.145Z,8.90
2019-03-26T09:48:50.583Z,9.10
2019-03-26T09:51:19.027Z,9.10
2019-03-26T09:53:47.479Z,9.30
2019-03-26T09:56:28.305Z,9.10
2019-03-26T09:58:46.139Z,9.70
2019-03-26T10:01:14.596Z,9.90
2019-03-26T10:03:43.131Z,10.20
2019-03-26T10:06:22.840Z,10.60
2019-03-26T10:08:51.765Z,9.70
2019-03-26T10:11:11.919Z,9.40
2019-03-26T10:13:40.365Z,9.90
2019-03-26T10:16:08.820Z,10.10
2019-03-26T10:18:37.279Z,9.80
2019-03-26T10:21:05.797Z,9.60
2019-03-26T10:23:34.232Z,9.20
2019-03-26T10:26:02.690Z,9.20
2019-03-26T10:28:31.151Z,8.50
2019-03-26T10:30:59.623Z,8.70
2019-03-26T10:33:28.068Z,9.30
2019-03-26T10:35:56.505Z,9.40
2019-03-26T10:38:24.979Z,9.30
2019-03-26T10:40:53.420Z,9.00
2019-03-26T10:43:21.860Z,9.10
2019-03-26T10:45:50.317Z,10.30
2019-03-26T10:48:18.766Z,10.60
2019-03-26T10:50:47.247Z,10.10
2019-03-26T10:53:15.688Z,9.70
2019-03-26T10:55:44.142Z,8.60
2019-03-26T10:58:12.664Z,8.20
2019-03-26T11:00:41.115Z,8.50
2019-03-26T11:03:09.562Z,8.80
2019-03-26T11:05:38.008Z,8.90
2019-03-26T11:08:06.449Z,9.30
2019-03-26T11:10:34.922Z,9.60
2019-03-26T11:13:03.362Z,8.80
2019-03-26T11:15:31.818Z,8.70
2019-03-26T11:18:00.297Z,10.00
2019-03-26T11:20:28.752Z,9.80
2019-03-26T11:22:57.195Z,9.50
2019-03-26T11:25:25.672Z,10.20
2019-03-26T11:27:54.116Z,10.20
2019-03-26T11:30:22.575Z,11.00
2019-03-26T11:32:51.023Z,11.40
2019-03-26T11:35:19.467Z,12.10
2019-03-26T11:37:47.999Z,11.70
2019-03-26T11:40:16.589Z,11.10
2019-03-26T11:42:45.129Z,10.50
2019-03-26T11:45:14.540Z,10.40
2019-03-26T11:47:43.015Z,10.10
2019-03-26T11:50:11.996Z,9.90
2019-03-26T11:52:41.080Z,10.20
2019-03-26T11:55:10.906Z,9.70
2019-03-26T11:57:39.539Z,10.00
2019-03-26T12:00:10.704Z,10.20
2019-03-26T12:02:39.168Z,10.20
2019-03-26T12:05:08.070Z,10.40
2019-03-26T12:07:37.276Z,9.80
2019-03-26T12:10:08.991Z,9.90
2019-03-26T12:12:37.428Z,9.60
2019-03-26T12:15:07.773Z,9.20
2019-03-26T12:17:36.240Z,9.20
2019-03-26T12:20:06.674Z,9.30
2019-03-26T12:22:35.134Z,9.60
2019-03-26T12:25:04.776Z,9.20
2019-03-26T12:27:36.331Z,9.10
2019-03-26T12:30:05.345Z,9.20
2019-03-26T12:32:33.781Z,9.80
2019-03-26T12:35:02.597Z,10.20
2019-03-26T12:37:31.055Z,10.40
2019-03-26T12:40:00.693Z,10.60
2019-03-26T12:42:29.535Z,10.70
2019-03-26T12:44:58.002Z,11.10
2019-03-26T12:47:26.439Z,12.30
2019-03-26T12:49:55.081Z,12.00
2019-03-26T12:52:23.532Z,11.60
2019-03-26T12:54:52.000Z,10.90
2019-03-26T12:57:20.455Z,10.40
2019-03-26T12:59:48.892Z,10.40
2019-03-26T13:02:17.340Z,10.10
2019-03-26T13:04:45.788Z,10.40
2019-03-26T13:07:14.248Z,10.20
2019-03-26T13:09:42.688Z,10.50
2019-03-26T13:12:11.155Z,10.90
2019-03-26T13:14:39.593Z,11.10
2019-03-26T13:17:08.047Z,11.10
2019-03-26T13:19:36.503Z,10.60
2019-03-26T13:22:05.040Z,11.40
2019-03-26T13:24:33.512Z,11.90
2019-03-26T13:27:01.969Z,12.60
2019-03-26T13:29:30.431Z,12.30
2019-03-26T13:31:58.871Z,11.70
2019-03-26T13:34:27.341Z,11.90
2019-03-26T13:36:55.851Z,11.80
2019-03-26T13:39:24.313Z,10.90
2019-03-26T13:41:55.191Z,10.80
2019-03-26T13:44:23.664Z,12.10
2019-03-26T13:46:52.131Z,13.10
2019-03-26T13:49:20.618Z,12.40
2019-03-26T13:51:49.101Z,12.50
2019-03-26T13:54:17.551Z,12.00
2019-03-26T13:56:46.009Z,11.20
2019-03-26T13:59:14.457Z,10.60
2019-03-26T14:01:42.907Z,9.70
2019-03-26T14:04:11.366Z,9.60
2019-03-26T14:06:39.896Z,9.80
2019-03-26T14:09:08.577Z,9.10
2019-03-26T14:11:37.092Z,9.30
2019-03-26T14:14:05.550Z,9.00
2019-03-26T14:16:49.019Z,9.20
2019-03-26T14:19:17.477Z,9.30
2019-03-26T14:21:45.929Z,9.50
2019-03-26T14:24:14.366Z,9.80
2019-03-26T14:26:42.801Z,9.90
2019-03-26T14:29:11.251Z,9.70
2019-03-26T14:31:39.710Z,9.90
2019-03-26T14:34:08.192Z,10.30
2019-03-26T14:36:36.638Z,10.30
2019-03-26T14:39:08.158Z,10.10
2019-03-26T14:41:36.619Z,11.50
2019-03-26T14:44:05.065Z,13.30
2019-03-26T14:46:33.613Z,15.20
2019-03-26T14:49:03.711Z,14.40
2019-03-26T14:51:32.163Z,15.00
2019-03-26T14:54:00.619Z,15.10
2019-03-26T14:56:29.071Z,13.60
2019-03-26T14:58:57.539Z,12.30
2019-03-26T15:01:26.263Z,11.80
2019-03-26T15:03:54.729Z,10.90
2019-03-26T15:06:23.184Z,10.60
2019-03-26T15:08:51.640Z,10.90
2019-03-26T15:11:20.179Z,11.40
2019-03-26T15:13:49.655Z,12.40
2019-03-26T15:16:18.327Z,11.40
2019-03-26T15:18:46.801Z,12.10
2019-03-26T15:21:15.244Z,12.10
2019-03-26T15:23:43.703Z,12.40
2019-03-26T15:26:12.156Z,12.30
2019-03-26T15:28:40.606Z,10.90
2019-03-26T15:31:09.126Z,10.60
2019-03-26T15:33:37.592Z,10.30
2019-03-26T15:36:06.073Z,10.20
2019-03-26T15:38:34.636Z,9.60
2019-03-26T15:41:03.096Z,9.90
2019-03-26T15:43:31.563Z,9.70
2019-03-26T15:46:00.064Z,9.50
2019-03-26T15:48:28.541Z,9.30
2019-03-26T15:50:56.980Z,9.20
2019-03-26T15:53:25.506Z,8.90
2019-03-26T15:55:53.970Z,9.50
2019-03-26T15:58:22.434Z,9.60
2019-03-26T16:00:50.886Z,9.50
2019-03-26T16:03:22.274Z,9.20
2019-03-26T16:05:49.500Z,9.10
2019-03-26T16:08:17.965Z,9.00
2019-03-26T16:10:46.416Z,9.00
2019-03-26T16:13:14.857Z,9.20
2019-03-26T16:15:45.013Z,9.50
2019-03-26T16:18:13.485Z,9.10
2019-03-26T16:20:41.939Z,9.10
2019-03-26T16:23:10.379Z,9.50
2019-03-26T16:25:38.828Z,9.10
2019-03-26T16:28:07.309Z,9.00
2019-03-26T16:30:35.759Z,9.00
2019-03-26T16:33:04.359Z,8.60
2019-03-26T16:35:32.809Z,8.60
2019-03-26T16:38:01.273Z,8.50
2019-03-26T16:40:29.768Z,8.50
2019-03-26T16:42:58.251Z,8.30
2019-03-26T16:45:26.831Z,8.00
2019-03-26T16:47:55.349Z,7.90
2019-03-26T16:50:23.939Z,8.00
2019-03-26T16:52:52.451Z,8.00
2019-03-26T16:55:20.889Z,8.00
2019-03-26T16:57:49.700Z,8.00
2019-03-26T17:00:21.303Z,8.10
2019-03-26T17:02:49.781Z,7.80
2019-03-26T17:05:21.363Z,8.00
2019-03-26T17:07:49.819Z,7.80
2019-03-26T17:10:18.297Z,7.90
2019-03-26T17:12:46.820Z,8.00
2019-03-26T17:15:15.331Z,7.70
2019-03-26T17:17:43.787Z,7.60
2019-03-26T17:20:12.414Z,7.50
2019-03-26T17:22:40.913Z,7.50
2019-03-26T17:25:09.607Z,7.50
2019-03-26T17:27:38.061Z,7.60
2019-03-26T17:30:07.835Z,7.70
2019-03-26T17:32:36.305Z,7.50
2019-03-26T17:35:06.508Z,7.30
2019-03-26T17:37:35.023Z,7.30
2019-03-26T17:40:04.614Z,7.40
2019-03-26T17:42:34.663Z,7.20
2019-03-26T17:45:07.688Z,7.40
2019-03-26T17:47:36.226Z,7.10
2019-03-26T17:50:07.205Z,7.00
2019-03-26T17:52:35.934Z,7.10
2019-03-26T17:55:06.776Z,6.90
2019-03-26T17:57:35.257Z,7.00
2019-03-26T18:00:04.938Z,7.00
2019-03-26T18:02:33.384Z,7.00
2019-03-26T18:05:01.830Z,7.00
2019-03-26T18:07:30.289Z,7.00
2019-03-26T18:09:58.728Z,7.00
2019-03-26T18:12:31.105Z,7.00
2019-03-26T18:14:57.349Z,7.20
2019-03-26T18:17:25.793Z,7.20
2019-03-26T18:19:54.312Z,7.20
2019-03-26T18:22:22.752Z,7.10
2019-03-26T18:24:51.201Z,7.30
2019-03-26T18:27:19.653Z,7.20
2019-03-26T18:29:48.120Z,7.30
2019-03-26T18:32:16.572Z,7.30
2019-03-26T18:34:45.028Z,7.30
2019-03-26T18:37:15.012Z,7.20
2019-03-26T18:39:43.505Z,7.00
2019-03-26T18:42:11.954Z,7.10
2019-03-26T18:44:40.468Z,7.20
2019-03-26T18:47:08.933Z,7.40
2019-03-26T18:49:37.380Z,7.40
2019-03-26T18:52:05.893Z,7.30
2019-03-26T18:54:34.407Z,7.40
2019-03-26T18:57:04.464Z,7.50
2019-03-26T18:59:32.915Z,7.50
2019-03-26T19:02:02.932Z,7.40
2019-03-26T19:04:31.360Z,7.20
2019-03-26T19:06:59.810Z,7.10
2019-03-26T19:09:28.260Z,7.10
2019-03-26T19:11:56.704Z,6.60
2019-03-26T19:14:25.155Z,6.80
2019-03-26T19:16:53.601Z,6.60
2019-03-26T19:19:22.063Z,6.80
2019-03-26T19:21:53.690Z,7.00
2019-03-26T19:24:22.132Z,7.00
2019-03-26T19:26:50.630Z,7.20
2019-03-26T19:29:30.499Z,7.20
2019-03-26T19:31:58.948Z,7.30
2019-03-26T19:34:28.820Z,7.00
2019-03-26T19:36:57.343Z,6.70
2019-03-26T19:39:27.442Z,6.50
2019-03-26T19:41:55.908Z,6.60
2019-03-26T19:44:24.360Z,6.40
2019-03-26T19:46:52.806Z,6.40
2019-03-26T19:49:21.271Z,6.40
2019-03-26T19:51:49.779Z,6.40
2019-03-26T19:54:18.234Z,6.50
2019-03-26T19:56:46.682Z,6.80
2019-03-26T19:59:15.135Z,6.90
2019-03-26T20:01:43.590Z,6.80
2019-03-26T20:04:12.038Z,6.90
2019-03-26T20:06:40.493Z,6.80
2019-03-26T20:09:08.941Z,6.60
2019-03-26T20:11:37.392Z,6.90
2019-03-26T20:14:05.886Z,6.90
2019-03-26T20:16:41.703Z,6.80
2019-03-26T20:19:04.973Z,6.80
2019-03-26T20:21:33.483Z,6.80
2019-03-26T20:24:02.013Z,6.80
2019-03-26T20:26:30.454Z,7.00
2019-03-26T20:28:58.927Z,7.10
2019-03-26T20:31:27.450Z,7.10
2019-03-26T20:33:55.890Z,7.20
2019-03-26T20:36:24.404Z,6.90
2019-03-26T20:38:52.897Z,7.00
2019-03-26T20:41:21.428Z,7.00
2019-03-26T20:43:49.951Z,7.00
2019-03-26T20:46:18.440Z,7.00
2019-03-26T20:48:46.937Z,6.90
2019-03-26T20:51:15.403Z,6.90
2019-03-26T20:53:43.858Z,7.00
2019-03-26T20:56:12.668Z,7.00
2019-03-26T20:58:41.640Z,6.90
2019-03-26T21:01:10.099Z,6.60
2019-03-26T21:03:38.540Z,6.60
2019-03-26T21:06:06.990Z,6.60
2019-03-26T21:08:35.450Z,6.50
2019-03-26T21:11:04.109Z,6.60
2019-03-26T21:13:32.560Z,6.60
2019-03-26T21:16:01.089Z,6.40
2019-03-26T21:18:29.605Z,6.30
2019-03-26T21:20:58.065Z,6.50
2019-03-26T21:23:26.504Z,6.50
2019-03-26T21:25:54.961Z,6.60
2019-03-26T21:28:23.504Z,6.60
2019-03-26T21:30:51.944Z,6.60
2019-03-26T21:33:22.056Z,6.60
2019-03-26T21:35:50.610Z,6.40
2019-03-26T21:38:19.120Z,6.40
2019-03-26T21:40:47.678Z,6.80
2019-03-26T21:43:16.224Z,7.00
2019-03-26T21:45:44.687Z,7.00
2019-03-26T21:48:13.123Z,7.00
2019-03-26T21:50:41.586Z,6.90
2019-03-26T21:53:10.028Z,7.00
2019-03-26T21:55:38.551Z,6.70
2019-03-26T21:58:14.262Z,6.70
2019-03-26T22:00:44.283Z,6.70
2019-03-26T22:03:13.044Z,6.60
2019-03-26T22:05:41.486Z,6.60
2019-03-26T22:08:09.937Z,6.70
2019-03-26T22:10:38.454Z,6.70
2019-03-26T22:13:06.904Z,6.70
2019-03-26T22:15:35.417Z,6.80
2019-03-26T22:18:03.983Z,6.90
2019-03-26T22:20:32.528Z,6.90
2019-03-26T22:23:01.470Z,6.90
2019-03-26T22:25:29.996Z,6.80
2019-03-26T22:27:58.437Z,6.60
2019-03-26T22:30:26.880Z,6.70
2019-03-26T22:32:55.340Z,6.80
2019-03-26T22:35:23.786Z,6.80
2019-03-26T22:37:52.323Z,6.80
2019-03-26T22:40:20.762Z,6.80
2019-03-26T22:42:49.292Z,6.70
2019-03-26T22:45:17.747Z,6.70
2019-03-26T22:47:46.192Z,6.70
2019-03-26T22:50:15.989Z,6.60
2019-03-26T22:52:44.439Z,6.70
2019-03-26T22:55:13.024Z,6.40
2019-03-26T22:57:41.467Z,6.60
2019-03-26T23:00:12.936Z,6.70
2019-03-26T23:02:41.386Z,6.70
2019-03-26T23:05:10.076Z,6.70
2019-03-26T23:07:38.534Z,6.70
2019-03-26T23:10:08.088Z,6.60
2019-03-26T23:12:36.609Z,6.60
2019-03-26T23:15:08.132Z,6.60
2019-03-26T23:17:36.604Z,6.60
2019-03-26T23:20:05.492Z,6.60
2019-03-26T23:22:33.936Z,6.60
2019-03-26T23:25:02.401Z,6.50
2019-03-26T23:27:30.924Z,6.60
2019-03-26T23:29:59.396Z,6.30
2019-03-26T23:32:27.848Z,6.40
2019-03-26T23:34:56.287Z,6.50
2019-03-26T23:37:24.746Z,6.20
2019-03-26T23:39:53.188Z,6.20
2019-03-26T23:42:21.636Z,6.20
2019-03-26T23:44:58.331Z,6.10
2019-03-26T23:47:20.264Z,6.00
2019-03-26T23:49:48.730Z,6.20
2019-03-26T23:52:17.179Z,6.10
2019-03-26T23:54:45.692Z,6.20
2019-03-26T23:57:14.160Z,6.40
2019-03-26T23:59:42.607Z,6.50
